sensor_id;sensor_type;location;lat;lon;timestamp;pressure;altitude;pressure_sealevel;temperature;humidity
19789;BME280;10054;59.332;18.244;2023-06-04T00:01:57;101099.44;;;14.69;76.72
19789;BME280;10054;59.332;18.244;2023-06-04T00:04:26;101113.27;;;14.61;77.41
19789;BME280;10054;59.332;18.244;2023-06-04T00:06:55;101115.61;;;14.53;77.38
19789;BME280;10054;59.332;18.244;2023-06-04T00:09:24;101122.09;;;14.49;77.44
19789;BME280;10054;59.332;18.244;2023-06-04T00:11:53;101117.96;;;14.45;78.36
19789;BME280;10054;59.332;18.244;2023-06-04T00:14:22;101132.22;;;14.37;79.51
19789;BME280;10054;59.332;18.244;2023-06-04T00:16:51;101130.09;;;14.29;79.84
19789;BME280;10054;59.332;18.244;2023-06-04T00:19:20;101137.22;;;14.16;83.28
19789;BME280;10054;59.332;18.244;2023-06-04T00:21:49;101139.00;;;14.10;81.99
19789;BME280;10054;59.332;18.244;2023-06-04T00:24:18;101136.13;;;14.00;84.89
19789;BME280;10054;59.332;18.244;2023-06-04T00:26:47;101137.70;;;13.90;86.47
19789;BME280;10054;59.332;18.244;2023-06-04T00:29:16;101139.08;;;13.83;86.57
19789;BME280;10054;59.332;18.244;2023-06-04T00:31:45;101139.48;;;13.77;87.37
19789;BME280;10054;59.332;18.244;2023-06-04T00:34:14;101147.75;;;13.72;86.03
19789;BME280;10054;59.332;18.244;2023-06-04T00:36:43;101141.77;;;13.76;85.00
19789;BME280;10054;59.332;18.244;2023-06-04T00:39:12;101146.55;;;13.84;84.53
19789;BME280;10054;59.332;18.244;2023-06-04T00:41:42;101151.17;;;13.87;84.61
19789;BME280;10054;59.332;18.244;2023-06-04T00:44:11;101167.19;;;13.86;85.68
19789;BME280;10054;59.332;18.244;2023-06-04T00:46:39;101174.13;;;13.81;86.41
19789;BME280;10054;59.332;18.244;2023-06-04T00:49:08;101162.41;;;13.78;88.31
19789;BME280;10054;59.332;18.244;2023-06-04T00:51:39;101158.25;;;13.74;87.82
19789;BME280;10054;59.332;18.244;2023-06-04T00:54:08;101157.98;;;13.71;88.00
19789;BME280;10054;59.332;18.244;2023-06-04T00:56:37;101154.69;;;13.68;87.95
19789;BME280;10054;59.332;18.244;2023-06-04T00:59:09;101158.87;;;13.65;88.29
19789;BME280;10054;59.332;18.244;2023-06-04T01:01:43;101161.15;;;13.64;87.58
19789;BME280;10054;59.332;18.244;2023-06-04T01:04:17;101169.58;;;13.63;88.03
19789;BME280;10054;59.332;18.244;2023-06-04T01:06:43;101167.30;;;13.64;88.02
19789;BME280;10054;59.332;18.244;2023-06-04T01:09:13;101168.63;;;13.64;88.25
19789;BME280;10054;59.332;18.244;2023-06-04T01:11:42;101163.53;;;13.61;91.15
19789;BME280;10054;59.332;18.244;2023-06-04T01:14:11;101166.98;;;13.49;91.18
19789;BME280;10054;59.332;18.244;2023-06-04T01:16:43;101163.84;;;13.37;89.68
19789;BME280;10054;59.332;18.244;2023-06-04T01:19:38;101165.20;;;13.30;87.98
19789;BME280;10054;59.332;18.244;2023-06-04T01:21:49;101167.75;;;13.31;87.17
19789;BME280;10054;59.332;18.244;2023-06-04T01:24:21;101174.67;;;13.27;86.77
19789;BME280;10054;59.332;18.244;2023-06-04T01:26:51;101183.11;;;13.19;87.45
19789;BME280;10054;59.332;18.244;2023-06-04T01:29:22;101184.44;;;13.19;87.57
19789;BME280;10054;59.332;18.244;2023-06-04T01:31:52;101178.17;;;13.13;86.15
19789;BME280;10054;59.332;18.244;2023-06-04T01:34:22;101188.77;;;13.13;86.07
19789;BME280;10054;59.332;18.244;2023-06-04T01:36:51;101195.02;;;13.12;85.97
19789;BME280;10054;59.332;18.244;2023-06-04T01:39:20;101195.03;;;13.05;85.69
19789;BME280;10054;59.332;18.244;2023-06-04T01:41:50;101204.69;;;12.99;85.98
19789;BME280;10054;59.332;18.244;2023-06-04T01:44:19;101193.53;;;12.94;86.78
19789;BME280;10054;59.332;18.244;2023-06-04T01:46:48;101195.05;;;12.91;86.33
19789;BME280;10054;59.332;18.244;2023-06-04T01:49:17;101190.33;;;12.81;87.58
19789;BME280;10054;59.332;18.244;2023-06-04T01:51:46;101199.22;;;12.80;87.89
19789;BME280;10054;59.332;18.244;2023-06-04T01:54:15;101191.09;;;12.83;88.11
19789;BME280;10054;59.332;18.244;2023-06-04T01:56:44;101197.52;;;12.87;88.73
19789;BME280;10054;59.332;18.244;2023-06-04T01:59:14;101200.07;;;12.88;89.16
19789;BME280;10054;59.332;18.244;2023-06-04T02:01:43;101211.70;;;12.93;90.16
19789;BME280;10054;59.332;18.244;2023-06-04T02:04:12;101212.92;;;12.94;90.52
19789;BME280;10054;59.332;18.244;2023-06-04T02:06:41;101223.43;;;12.89;90.96
19789;BME280;10054;59.332;18.244;2023-06-04T02:09:10;101222.02;;;12.76;91.64
19789;BME280;10054;59.332;18.244;2023-06-04T02:11:39;101217.00;;;12.64;92.77
19789;BME280;10054;59.332;18.244;2023-06-04T02:14:08;101218.92;;;12.55;92.79
19789;BME280;10054;59.332;18.244;2023-06-04T02:16:38;101234.32;;;12.48;92.69
19789;BME280;10054;59.332;18.244;2023-06-04T02:19:07;101239.70;;;12.40;91.88
19789;BME280;10054;59.332;18.244;2023-06-04T02:21:35;101226.18;;;12.37;91.91
19789;BME280;10054;59.332;18.244;2023-06-04T02:24:04;101237.80;;;12.35;93.24
19789;BME280;10054;59.332;18.244;2023-06-04T02:26:33;101237.42;;;12.34;92.73
19789;BME280;10054;59.332;18.244;2023-06-04T02:29:02;101245.73;;;12.35;93.17
19789;BME280;10054;59.332;18.244;2023-06-04T02:31:30;101241.86;;;12.33;92.09
19789;BME280;10054;59.332;18.244;2023-06-04T02:33:59;101253.35;;;12.18;93.32
19789;BME280;10054;59.332;18.244;2023-06-04T02:36:29;101253.35;;;12.18;93.32
19789;BME280;10054;59.332;18.244;2023-06-04T02:38:58;101251.84;;;12.21;91.68
19789;BME280;10054;59.332;18.244;2023-06-04T02:41:28;101259.13;;;12.25;90.76
19789;BME280;10054;59.332;18.244;2023-06-04T02:43:57;101256.58;;;12.23;87.75
19789;BME280;10054;59.332;18.244;2023-06-04T02:46:26;101265.23;;;12.11;86.28
19789;BME280;10054;59.332;18.244;2023-06-04T02:48:55;101259.54;;;12.03;87.31
19789;BME280;10054;59.332;18.244;2023-06-04T02:51:24;101259.54;;;12.03;87.31
19789;BME280;10054;59.332;18.244;2023-06-04T02:53:53;101263.30;;;11.99;87.34
19789;BME280;10054;59.332;18.244;2023-06-04T02:56:22;101264.30;;;11.89;88.66
19789;BME280;10054;59.332;18.244;2023-06-04T02:58:56;101264.30;;;11.89;88.66
19789;BME280;10054;59.332;18.244;2023-06-04T03:01:25;101278.11;;;11.94;88.64
19789;BME280;10054;59.332;18.244;2023-06-04T03:03:55;101281.22;;;11.94;89.56
19789;BME280;10054;59.332;18.244;2023-06-04T03:06:25;101285.19;;;11.94;91.22
19789;BME280;10054;59.332;18.244;2023-06-04T03:08:54;101282.58;;;12.01;91.33
19789;BME280;10054;59.332;18.244;2023-06-04T03:11:23;101285.25;;;12.08;92.01
19789;BME280;10054;59.332;18.244;2023-06-04T03:13:52;101285.25;;;12.08;92.01
19789;BME280;10054;59.332;18.244;2023-06-04T03:16:21;101286.86;;;12.10;92.48
19789;BME280;10054;59.332;18.244;2023-06-04T03:18:50;101289.42;;;12.12;93.50
19789;BME280;10054;59.332;18.244;2023-06-04T03:21:19;101289.23;;;12.15;92.93
19789;BME280;10054;59.332;18.244;2023-06-04T03:23:48;101289.23;;;12.15;92.93
19789;BME280;10054;59.332;18.244;2023-06-04T03:26:18;101294.23;;;12.12;87.76
19789;BME280;10054;59.332;18.244;2023-06-04T03:28:46;101284.84;;;12.00;83.38
19789;BME280;10054;59.332;18.244;2023-06-04T03:31:17;101291.13;;;11.90;79.00
19789;BME280;10054;59.332;18.244;2023-06-04T03:33:46;101300.12;;;11.88;80.13
19789;BME280;10054;59.332;18.244;2023-06-04T03:36:16;101303.80;;;11.76;77.25
19789;BME280;10054;59.332;18.244;2023-06-04T03:38:46;101303.38;;;11.68;78.47
19789;BME280;10054;59.332;18.244;2023-06-04T03:41:15;101306.53;;;11.75;79.84
19789;BME280;10054;59.332;18.244;2023-06-04T03:43:44;101307.56;;;11.72;77.74
19789;BME280;10054;59.332;18.244;2023-06-04T03:46:13;101312.25;;;11.67;77.17
19789;BME280;10054;59.332;18.244;2023-06-04T03:48:42;101309.39;;;11.63;78.22
19789;BME280;10054;59.332;18.244;2023-06-04T03:51:12;101305.81;;;11.64;78.23
19789;BME280;10054;59.332;18.244;2023-06-04T03:53:42;101310.63;;;11.65;75.94
19789;BME280;10054;59.332;18.244;2023-06-04T03:56:11;101305.13;;;11.61;76.83
19789;BME280;10054;59.332;18.244;2023-06-04T03:58:41;101305.13;;;11.61;76.83
19789;BME280;10054;59.332;18.244;2023-06-04T04:01:10;101317.11;;;11.59;74.46
19789;BME280;10054;59.332;18.244;2023-06-04T04:03:40;101318.22;;;11.55;73.07
19789;BME280;10054;59.332;18.244;2023-06-04T04:06:10;101314.89;;;11.67;75.55
19789;BME280;10054;59.332;18.244;2023-06-04T04:08:40;101314.89;;;11.67;75.55
19789;BME280;10054;59.332;18.244;2023-06-04T04:11:15;101315.51;;;11.88;73.82
19789;BME280;10054;59.332;18.244;2023-06-04T04:13:47;101318.48;;;12.05;72.16
19789;BME280;10054;59.332;18.244;2023-06-04T04:16:17;101316.48;;;12.01;72.21
19789;BME280;10054;59.332;18.244;2023-06-04T04:18:46;101309.61;;;12.06;73.09
19789;BME280;10054;59.332;18.244;2023-06-04T04:21:15;101315.08;;;12.03;72.07
19789;BME280;10054;59.332;18.244;2023-06-04T04:23:45;101314.22;;;12.02;72.86
19789;BME280;10054;59.332;18.244;2023-06-04T04:26:14;101319.72;;;12.06;73.31
19789;BME280;10054;59.332;18.244;2023-06-04T04:28:45;101319.62;;;12.31;73.38
19789;BME280;10054;59.332;18.244;2023-06-04T04:31:15;101322.80;;;12.52;71.52
19789;BME280;10054;59.332;18.244;2023-06-04T04:33:46;101316.66;;;12.72;70.05
19789;BME280;10054;59.332;18.244;2023-06-04T04:36:14;101329.36;;;12.96;67.24
19789;BME280;10054;59.332;18.244;2023-06-04T04:38:46;101315.64;;;12.96;67.05
19789;BME280;10054;59.332;18.244;2023-06-04T04:41:21;101317.38;;;13.33;68.28
19789;BME280;10054;59.332;18.244;2023-06-04T04:43:54;101329.80;;;13.59;66.22
19789;BME280;10054;59.332;18.244;2023-06-04T04:46:26;101335.21;;;13.92;63.95
19789;BME280;10054;59.332;18.244;2023-06-04T04:48:55;101333.74;;;13.73;61.50
19789;BME280;10054;59.332;18.244;2023-06-04T04:51:24;101334.23;;;13.66;64.40
19789;BME280;10054;59.332;18.244;2023-06-04T04:53:54;101336.30;;;13.75;62.66
19789;BME280;10054;59.332;18.244;2023-06-04T04:56:23;101337.46;;;13.64;59.72
19789;BME280;10054;59.332;18.244;2023-06-04T04:58:54;101337.93;;;13.63;62.52
19789;BME280;10054;59.332;18.244;2023-06-04T05:01:23;101331.98;;;13.94;58.46
19789;BME280;10054;59.332;18.244;2023-06-04T05:03:53;101328.61;;;14.24;59.64
19789;BME280;10054;59.332;18.244;2023-06-04T05:06:22;101332.20;;;14.50;59.57
19789;BME280;10054;59.332;18.244;2023-06-04T05:08:52;101331.50;;;14.73;58.05
19789;BME280;10054;59.332;18.244;2023-06-04T05:11:21;101333.33;;;14.53;58.50
19789;BME280;10054;59.332;18.244;2023-06-04T05:13:50;101330.47;;;14.94;59.19
19789;BME280;10054;59.332;18.244;2023-06-04T05:16:19;101333.59;;;15.06;58.14
19789;BME280;10054;59.332;18.244;2023-06-04T05:18:50;101339.61;;;15.03;56.26
19789;BME280;10054;59.332;18.244;2023-06-04T05:21:20;101334.98;;;14.99;57.14
19789;BME280;10054;59.332;18.244;2023-06-04T05:23:51;101333.98;;;14.69;54.19
19789;BME280;10054;59.332;18.244;2023-06-04T05:26:21;101334.05;;;14.42;56.21
19789;BME280;10054;59.332;18.244;2023-06-04T05:28:52;101337.66;;;14.14;55.90
19789;BME280;10054;59.332;18.244;2023-06-04T05:31:21;101340.88;;;14.12;55.47
19789;BME280;10054;59.332;18.244;2023-06-04T05:33:52;101345.52;;;13.96;55.96
19789;BME280;10054;59.332;18.244;2023-06-04T05:36:22;101344.77;;;14.14;58.94
19789;BME280;10054;59.332;18.244;2023-06-04T05:38:52;101343.14;;;14.45;58.37
19789;BME280;10054;59.332;18.244;2023-06-04T05:41:29;101342.91;;;14.68;58.37
19789;BME280;10054;59.332;18.244;2023-06-04T05:43:58;101357.45;;;14.63;56.89
19789;BME280;10054;59.332;18.244;2023-06-04T05:46:28;101346.09;;;14.34;55.38
19789;BME280;10054;59.332;18.244;2023-06-04T05:48:57;101352.22;;;14.22;56.26
19789;BME280;10054;59.332;18.244;2023-06-04T05:51:26;101349.78;;;13.99;55.43
19789;BME280;10054;59.332;18.244;2023-06-04T05:53:55;101350.62;;;13.99;54.30
19789;BME280;10054;59.332;18.244;2023-06-04T05:56:24;101358.83;;;13.82;57.04
19789;BME280;10054;59.332;18.244;2023-06-04T05:58:54;101355.70;;;13.83;54.18
19789;BME280;10054;59.332;18.244;2023-06-04T06:01:24;101361.42;;;13.62;53.95
19789;BME280;10054;59.332;18.244;2023-06-04T06:03:54;101355.56;;;13.50;57.26
19789;BME280;10054;59.332;18.244;2023-06-04T06:06:24;101361.34;;;13.42;56.72
19789;BME280;10054;59.332;18.244;2023-06-04T06:08:53;101358.78;;;13.48;56.60
19789;BME280;10054;59.332;18.244;2023-06-04T06:11:22;101369.75;;;13.63;56.43
19789;BME280;10054;59.332;18.244;2023-06-04T06:13:53;101363.28;;;13.81;57.25
19789;BME280;10054;59.332;18.244;2023-06-04T06:16:22;101355.66;;;14.17;56.59
19789;BME280;10054;59.332;18.244;2023-06-04T06:18:51;101372.52;;;13.96;55.05
19789;BME280;10054;59.332;18.244;2023-06-04T06:21:22;101370.91;;;13.38;56.14
19789;BME280;10054;59.332;18.244;2023-06-04T06:23:51;101367.86;;;13.58;59.25
19789;BME280;10054;59.332;18.244;2023-06-04T06:26:20;101371.98;;;13.84;58.38
19789;BME280;10054;59.332;18.244;2023-06-04T06:28:51;101377.36;;;13.96;54.89
19789;BME280;10054;59.332;18.244;2023-06-04T06:31:21;101380.95;;;13.95;55.56
19789;BME280;10054;59.332;18.244;2023-06-04T06:33:49;101379.06;;;13.97;54.58
19789;BME280;10054;59.332;18.244;2023-06-04T06:36:18;101372.82;;;13.91;55.26
19789;BME280;10054;59.332;18.244;2023-06-04T06:38:47;101381.89;;;14.01;56.11
19789;BME280;10054;59.332;18.244;2023-06-04T06:41:16;101382.20;;;14.36;55.72
19789;BME280;10054;59.332;18.244;2023-06-04T06:43:47;101385.23;;;14.37;53.37
19789;BME280;10054;59.332;18.244;2023-06-04T06:46:15;101384.79;;;14.31;55.12
19789;BME280;10054;59.332;18.244;2023-06-04T06:48:44;101380.75;;;14.52;52.72
19789;BME280;10054;59.332;18.244;2023-06-04T06:51:14;101382.52;;;14.59;54.03
19789;BME280;10054;59.332;18.244;2023-06-04T06:53:44;101378.97;;;14.65;53.59
19789;BME280;10054;59.332;18.244;2023-06-04T06:56:14;101389.56;;;14.98;52.08
19789;BME280;10054;59.332;18.244;2023-06-04T06:58:43;101394.56;;;14.77;51.98
19789;BME280;10054;59.332;18.244;2023-06-04T07:01:12;101389.42;;;14.61;54.17
19789;BME280;10054;59.332;18.244;2023-06-04T07:03:41;101386.55;;;14.84;52.50
19789;BME280;10054;59.332;18.244;2023-06-04T07:06:11;101393.77;;;15.20;52.65
19789;BME280;10054;59.332;18.244;2023-06-04T07:08:40;101396.20;;;15.49;51.51
19789;BME280;10054;59.332;18.244;2023-06-04T07:11:09;101390.98;;;15.78;51.00
19789;BME280;10054;59.332;18.244;2023-06-04T07:13:41;101401.27;;;15.21;51.16
19789;BME280;10054;59.332;18.244;2023-06-04T07:16:10;101397.16;;;15.35;51.98
19789;BME280;10054;59.332;18.244;2023-06-04T07:18:39;101403.00;;;15.53;51.64
19789;BME280;10054;59.332;18.244;2023-06-04T07:21:07;101398.07;;;15.72;52.11
19789;BME280;10054;59.332;18.244;2023-06-04T07:23:36;101402.03;;;15.85;51.52
19789;BME280;10054;59.332;18.244;2023-06-04T07:26:05;101399.97;;;15.52;51.56
19789;BME280;10054;59.332;18.244;2023-06-04T07:28:34;101402.54;;;15.71;50.48
19789;BME280;10054;59.332;18.244;2023-06-04T07:31:03;101405.26;;;15.59;50.23
19789;BME280;10054;59.332;18.244;2023-06-04T07:33:32;101399.01;;;15.53;49.36
19789;BME280;10054;59.332;18.244;2023-06-04T07:36:01;101402.84;;;15.80;51.07
19789;BME280;10054;59.332;18.244;2023-06-04T07:38:30;101408.82;;;15.70;50.03
19789;BME280;10054;59.332;18.244;2023-06-04T07:40:59;101411.91;;;15.59;50.40
19789;BME280;10054;59.332;18.244;2023-06-04T07:43:27;101415.98;;;15.44;51.43
19789;BME280;10054;59.332;18.244;2023-06-04T07:45:57;101403.22;;;15.50;50.58
19789;BME280;10054;59.332;18.244;2023-06-04T07:48:26;101410.05;;;15.72;50.88
19789;BME280;10054;59.332;18.244;2023-06-04T07:50:58;101411.16;;;15.93;49.37
19789;BME280;10054;59.332;18.244;2023-06-04T07:53:28;101424.14;;;15.98;49.14
19789;BME280;10054;59.332;18.244;2023-06-04T07:55:57;101424.17;;;15.85;49.46
19789;BME280;10054;59.332;18.244;2023-06-04T07:58:26;101433.37;;;15.87;48.69
19789;BME280;10054;59.332;18.244;2023-06-04T08:00:54;101415.94;;;16.01;50.03
19789;BME280;10054;59.332;18.244;2023-06-04T08:03:23;101416.86;;;15.94;49.93
19789;BME280;10054;59.332;18.244;2023-06-04T08:05:52;101424.02;;;15.81;50.41
19789;BME280;10054;59.332;18.244;2023-06-04T08:08:21;101427.51;;;15.63;50.38
19789;BME280;10054;59.332;18.244;2023-06-04T08:10:54;101429.80;;;15.62;51.50
19789;BME280;10054;59.332;18.244;2023-06-04T08:13:22;101429.56;;;15.78;51.58
19789;BME280;10054;59.332;18.244;2023-06-04T08:15:51;101424.80;;;15.89;49.37
19789;BME280;10054;59.332;18.244;2023-06-04T08:18:20;101444.16;;;15.91;50.45
19789;BME280;10054;59.332;18.244;2023-06-04T08:20:49;101431.95;;;15.75;49.56
19789;BME280;10054;59.332;18.244;2023-06-04T08:23:18;101428.84;;;15.63;48.25
19789;BME280;10054;59.332;18.244;2023-06-04T08:25:47;101433.05;;;15.22;48.60
19789;BME280;10054;59.332;18.244;2023-06-04T08:28:16;101437.04;;;15.22;51.34
19789;BME280;10054;59.332;18.244;2023-06-04T08:30:46;101441.98;;;15.21;51.18
19789;BME280;10054;59.332;18.244;2023-06-04T08:33:15;101441.72;;;15.19;51.85
19789;BME280;10054;59.332;18.244;2023-06-04T08:35:43;101445.02;;;15.35;52.09
19789;BME280;10054;59.332;18.244;2023-06-04T08:38:12;101451.45;;;15.38;51.05
19789;BME280;10054;59.332;18.244;2023-06-04T08:40:41;101450.44;;;15.46;51.42
19789;BME280;10054;59.332;18.244;2023-06-04T08:43:11;101451.98;;;15.43;51.15
19789;BME280;10054;59.332;18.244;2023-06-04T08:45:40;101455.17;;;15.35;50.93
19789;BME280;10054;59.332;18.244;2023-06-04T08:48:10;101455.66;;;15.35;50.98
19789;BME280;10054;59.332;18.244;2023-06-04T08:50:42;101450.97;;;15.26;51.11
19789;BME280;10054;59.332;18.244;2023-06-04T08:53:12;101455.28;;;15.34;50.44
19789;BME280;10054;59.332;18.244;2023-06-04T08:55:42;101456.92;;;15.29;50.94
19789;BME280;10054;59.332;18.244;2023-06-04T08:58:12;101469.27;;;15.43;50.73
19789;BME280;10054;59.332;18.244;2023-06-04T09:00:42;101464.33;;;15.44;48.08
19789;BME280;10054;59.332;18.244;2023-06-04T09:03:11;101466.97;;;15.19;50.37
19789;BME280;10054;59.332;18.244;2023-06-04T09:05:42;101463.95;;;14.98;50.21
19789;BME280;10054;59.332;18.244;2023-06-04T09:08:17;101468.19;;;14.88;50.05
19789;BME280;10054;59.332;18.244;2023-06-04T09:10:50;101472.27;;;14.73;50.62
19789;BME280;10054;59.332;18.244;2023-06-04T09:13:20;101481.52;;;14.61;51.74
19789;BME280;10054;59.332;18.244;2023-06-04T09:16:00;101483.59;;;14.63;51.55
19789;BME280;10054;59.332;18.244;2023-06-04T09:18:29;101473.80;;;14.70;51.88
19789;BME280;10054;59.332;18.244;2023-06-04T09:23:44;101480.48;;;14.96;52.00
19789;BME280;10054;59.332;18.244;2023-06-04T09:26:13;101479.97;;;15.03;51.35
19789;BME280;10054;59.332;18.244;2023-06-04T09:28:42;101474.34;;;15.08;51.64
19789;BME280;10054;59.332;18.244;2023-06-04T09:31:16;101480.44;;;15.03;51.64
19789;BME280;10054;59.332;18.244;2023-06-04T09:33:47;101480.61;;;15.07;50.95
19789;BME280;10054;59.332;18.244;2023-06-04T09:36:16;101482.55;;;14.85;52.45
19789;BME280;10054;59.332;18.244;2023-06-04T09:38:46;101479.16;;;14.96;52.11
19789;BME280;10054;59.332;18.244;2023-06-04T09:41:19;101481.88;;;15.01;52.31
19789;BME280;10054;59.332;18.244;2023-06-04T09:43:49;101483.47;;;15.04;51.79
19789;BME280;10054;59.332;18.244;2023-06-04T09:46:18;101486.47;;;15.12;51.04
19789;BME280;10054;59.332;18.244;2023-06-04T09:48:47;101485.28;;;15.03;51.35
19789;BME280;10054;59.332;18.244;2023-06-04T09:51:16;101485.20;;;15.18;50.95
19789;BME280;10054;59.332;18.244;2023-06-04T09:53:57;101482.91;;;15.19;51.60
19789;BME280;10054;59.332;18.244;2023-06-04T09:56:27;101476.07;;;15.34;51.46
19789;BME280;10054;59.332;18.244;2023-06-04T09:58:58;101485.06;;;15.52;50.86
19789;BME280;10054;59.332;18.244;2023-06-04T10:01:30;101486.50;;;15.63;50.70
19789;BME280;10054;59.332;18.244;2023-06-04T10:04:02;101488.20;;;15.76;50.25
19789;BME280;10054;59.332;18.244;2023-06-04T10:06:33;101483.45;;;15.87;49.72
19789;BME280;10054;59.332;18.244;2023-06-04T10:09:09;101485.95;;;15.83;49.86
19789;BME280;10054;59.332;18.244;2023-06-04T10:11:40;101481.44;;;15.78;47.72
19789;BME280;10054;59.332;18.244;2023-06-04T10:14:17;101490.81;;;15.71;49.98
19789;BME280;10054;59.332;18.244;2023-06-04T10:16:45;101486.00;;;15.89;49.98
19789;BME280;10054;59.332;18.244;2023-06-04T10:19:15;101482.98;;;16.06;49.73
19789;BME280;10054;59.332;18.244;2023-06-04T10:21:45;101484.73;;;16.13;47.83
19789;BME280;10054;59.332;18.244;2023-06-04T10:24:14;101490.16;;;15.80;49.37
19789;BME280;10054;59.332;18.244;2023-06-04T10:26:44;101487.62;;;15.66;49.67
19789;BME280;10054;59.332;18.244;2023-06-04T10:29:13;101494.73;;;15.60;50.02
19789;BME280;10054;59.332;18.244;2023-06-04T10:31:43;101492.56;;;15.65;50.66
19789;BME280;10054;59.332;18.244;2023-06-04T10:34:12;101488.47;;;15.41;50.78
19789;BME280;10054;59.332;18.244;2023-06-04T10:36:45;101495.25;;;15.20;51.30
19789;BME280;10054;59.332;18.244;2023-06-04T10:39:13;101491.47;;;15.17;51.46
19789;BME280;10054;59.332;18.244;2023-06-04T10:41:44;101497.92;;;15.32;49.86
19789;BME280;10054;59.332;18.244;2023-06-04T10:44:13;101490.23;;;15.48;49.42
19789;BME280;10054;59.332;18.244;2023-06-04T10:46:42;101493.30;;;15.80;50.09
19789;BME280;10054;59.332;18.244;2023-06-04T10:49:11;101489.02;;;16.02;48.92
19789;BME280;10054;59.332;18.244;2023-06-04T10:51:41;101487.03;;;16.30;49.09
19789;BME280;10054;59.332;18.244;2023-06-04T10:54:21;101488.33;;;16.24;48.44
19789;BME280;10054;59.332;18.244;2023-06-04T10:56:41;101483.39;;;16.55;47.61
19789;BME280;10054;59.332;18.244;2023-06-04T10:59:17;101493.37;;;16.64;45.01
19789;BME280;10054;59.332;18.244;2023-06-04T11:01:46;101493.20;;;16.30;46.24
19789;BME280;10054;59.332;18.244;2023-06-04T11:04:23;101506.22;;;16.22;46.96
19789;BME280;10054;59.332;18.244;2023-06-04T11:07:02;101498.08;;;15.87;48.38
19789;BME280;10054;59.332;18.244;2023-06-04T11:09:32;101507.36;;;15.56;48.19
19789;BME280;10054;59.332;18.244;2023-06-04T11:12:01;101508.63;;;15.51;47.86
19789;BME280;10054;59.332;18.244;2023-06-04T11:14:30;101504.85;;;15.48;48.46
19789;BME280;10054;59.332;18.244;2023-06-04T11:17:10;101511.75;;;15.57;48.90
19789;BME280;10054;59.332;18.244;2023-06-04T11:19:39;101511.50;;;15.60;48.78
19789;BME280;10054;59.332;18.244;2023-06-04T11:22:12;101513.48;;;15.64;47.76
19789;BME280;10054;59.332;18.244;2023-06-04T11:24:41;101512.89;;;15.53;48.88
19789;BME280;10054;59.332;18.244;2023-06-04T11:27:10;101513.69;;;15.73;48.36
19789;BME280;10054;59.332;18.244;2023-06-04T11:29:40;101513.37;;;15.65;48.29
19789;BME280;10054;59.332;18.244;2023-06-04T11:32:09;101518.51;;;15.99;48.17
19789;BME280;10054;59.332;18.244;2023-06-04T11:34:37;101514.87;;;16.13;47.80
19789;BME280;10054;59.332;18.244;2023-06-04T11:37:10;101518.94;;;16.24;47.10
19789;BME280;10054;59.332;18.244;2023-06-04T11:39:38;101519.31;;;16.49;46.09
19789;BME280;10054;59.332;18.244;2023-06-04T11:42:08;101515.03;;;16.78;46.67
19789;BME280;10054;59.332;18.244;2023-06-04T11:44:37;101516.35;;;16.59;44.60
19789;BME280;10054;59.332;18.244;2023-06-04T11:47:09;101520.34;;;16.59;46.53
19789;BME280;10054;59.332;18.244;2023-06-04T11:49:38;101516.44;;;16.70;46.66
19789;BME280;10054;59.332;18.244;2023-06-04T11:52:06;101513.22;;;16.78;46.82
19789;BME280;10054;59.332;18.244;2023-06-04T11:54:36;101506.20;;;16.83;46.07
19789;BME280;10054;59.332;18.244;2023-06-04T11:57:05;101517.20;;;16.78;44.88
19789;BME280;10054;59.332;18.244;2023-06-04T11:59:34;101521.08;;;16.61;46.38
19789;BME280;10054;59.332;18.244;2023-06-04T12:02:04;101525.41;;;16.69;45.07
19789;BME280;10054;59.332;18.244;2023-06-04T12:04:34;101529.16;;;16.36;45.06
19789;BME280;10054;59.332;18.244;2023-06-04T12:07:03;101526.06;;;16.05;46.51
19789;BME280;10054;59.332;18.244;2023-06-04T12:09:34;101527.15;;;16.21;46.78
19789;BME280;10054;59.332;18.244;2023-06-04T12:12:04;101523.16;;;16.21;45.52
19789;BME280;10054;59.332;18.244;2023-06-04T12:14:34;101518.75;;;16.15;46.14
19789;BME280;10054;59.332;18.244;2023-06-04T12:17:09;101521.83;;;16.21;46.58
19789;BME280;10054;59.332;18.244;2023-06-04T12:19:48;101523.50;;;16.40;46.97
19789;BME280;10054;59.332;18.244;2023-06-04T12:22:18;101527.55;;;16.64;45.94
19789;BME280;10054;59.332;18.244;2023-06-04T12:24:53;101524.58;;;16.74;46.33
19789;BME280;10054;59.332;18.244;2023-06-04T12:27:27;101523.70;;;16.92;46.36
19789;BME280;10054;59.332;18.244;2023-06-04T12:30:02;101529.38;;;16.88;46.50
19789;BME280;10054;59.332;18.244;2023-06-04T12:32:35;101532.37;;;16.83;45.68
19789;BME280;10054;59.332;18.244;2023-06-04T12:35:04;101526.56;;;16.84;46.24
19789;BME280;10054;59.332;18.244;2023-06-04T12:37:33;101542.38;;;16.74;46.05
19789;BME280;10054;59.332;18.244;2023-06-04T12:40:03;101539.13;;;16.76;46.22
19789;BME280;10054;59.332;18.244;2023-06-04T12:42:35;101526.94;;;16.85;45.39
19789;BME280;10054;59.332;18.244;2023-06-04T12:45:04;101526.54;;;16.78;45.32
19789;BME280;10054;59.332;18.244;2023-06-04T12:47:33;101528.42;;;16.52;45.71
19789;BME280;10054;59.332;18.244;2023-06-04T12:50:02;101520.80;;;16.53;46.42
19789;BME280;10054;59.332;18.244;2023-06-04T12:52:30;101524.34;;;16.59;45.49
19789;BME280;10054;59.332;18.244;2023-06-04T12:54:59;101532.48;;;16.63;45.98
19789;BME280;10054;59.332;18.244;2023-06-04T12:57:28;101527.70;;;16.68;46.27